<?xml version="1.0" encoding="UTF-8" standalone="no" ?>
<gpx xmlns="http://www.topografix.com/GPX/1/1" xmlns:xsi="http://www.w3.org/2001/XMLSchema-instance" xsi:schemaLocation="http://www.topografix.com/GPX/1/1 http://www.topografix.com/GPX/1/1/gpx.xsd" version="1.1" creator="VisuGPX - https://www.visugpx.com">
  <metadata>
    <name>Celles sur Belle 8km</name>
  </metadata>
  <trk>
    <name><![CDATA[Celles on GPSies.com]]></name>
    <trkseg>
      <trkpt lat="46.26156" lon="-0.20745">
        <ele>99</ele>
        <time>2010-01-01T00:00:00Z</time>
      </trkpt>
      <trkpt lat="46.26157" lon="-0.207">
        <ele>104</ele>
        <time>2010-01-01T00:00:31Z</time>
      </trkpt>
      <trkpt lat="46.26143" lon="-0.20691">
        <ele>104</ele>
        <time>2010-01-01T00:00:46Z</time>
      </trkpt>
      <trkpt lat="46.26132" lon="-0.20676">
        <ele>107</ele>
        <time>2010-01-01T00:01:01Z</time>
      </trkpt>
      <trkpt lat="46.26197" lon="-0.2068">
        <ele>107</ele>
        <time>2010-01-01T00:02:06Z</time>
      </trkpt>
      <trkpt lat="46.26241" lon="-0.20682">
        <ele>109</ele>
        <time>2010-01-01T00:02:50Z</time>
      </trkpt>
      <trkpt lat="46.26272" lon="-0.20686">
        <ele>111</ele>
        <time>2010-01-01T00:03:21Z</time>
      </trkpt>
      <trkpt lat="46.26312" lon="-0.20666">
        <ele>117</ele>
        <time>2010-01-01T00:04:03Z</time>
      </trkpt>
      <trkpt lat="46.26349" lon="-0.2063">
        <ele>124</ele>
        <time>2010-01-01T00:04:48Z</time>
      </trkpt>
      <trkpt lat="46.26363" lon="-0.20608">
        <ele>125</ele>
        <time>2010-01-01T00:05:09Z</time>
      </trkpt>
      <trkpt lat="46.26356" lon="-0.20583">
        <ele>126</ele>
        <time>2010-01-01T00:05:27Z</time>
      </trkpt>
      <trkpt lat="46.26335" lon="-0.20538">
        <ele>127</ele>
        <time>2010-01-01T00:06:05Z</time>
      </trkpt>
      <trkpt lat="46.26331" lon="-0.20527">
        <ele>128</ele>
        <time>2010-01-01T00:06:13Z</time>
      </trkpt>
      <trkpt lat="46.26398" lon="-0.2044">
        <ele>128</ele>
        <time>2010-01-01T00:07:44Z</time>
      </trkpt>
      <trkpt lat="46.2651" lon="-0.20222">
        <ele>136</ele>
        <time>2010-01-01T00:10:52Z</time>
      </trkpt>
      <trkpt lat="46.26435" lon="-0.20056">
        <ele>137</ele>
        <time>2010-01-01T00:13:08Z</time>
      </trkpt>
      <trkpt lat="46.26474" lon="-0.20046">
        <ele>136</ele>
        <time>2010-01-01T00:13:48Z</time>
      </trkpt>
      <trkpt lat="46.2651" lon="-0.19987">
        <ele>139</ele>
        <time>2010-01-01T00:14:43Z</time>
      </trkpt>
      <trkpt lat="46.26533" lon="-0.19936">
        <ele>142</ele>
        <time>2010-01-01T00:15:25Z</time>
      </trkpt>
      <trkpt lat="46.26479" lon="-0.19859">
        <ele>144</ele>
        <time>2010-01-01T00:16:41Z</time>
      </trkpt>
      <trkpt lat="46.2646" lon="-0.19819">
        <ele>143</ele>
        <time>2010-01-01T00:17:15Z</time>
      </trkpt>
      <trkpt lat="46.26507" lon="-0.19726">
        <ele>137</ele>
        <time>2010-01-01T00:18:35Z</time>
      </trkpt>
      <trkpt lat="46.2655" lon="-0.19644">
        <ele>135</ele>
        <time>2010-01-01T00:19:46Z</time>
      </trkpt>
      <trkpt lat="46.26608" lon="-0.19548">
        <ele>131</ele>
        <time>2010-01-01T00:21:14Z</time>
      </trkpt>
      <trkpt lat="46.26647" lon="-0.1949">
        <ele>130</ele>
        <time>2010-01-01T00:22:10Z</time>
      </trkpt>
      <trkpt lat="46.26728" lon="-0.19475">
        <ele>126</ele>
        <time>2010-01-01T00:23:32Z</time>
      </trkpt>
      <trkpt lat="46.26763" lon="-0.19439">
        <ele>123</ele>
        <time>2010-01-01T00:24:14Z</time>
      </trkpt>
      <trkpt lat="46.26774" lon="-0.19415">
        <ele>120</ele>
        <time>2010-01-01T00:24:35Z</time>
      </trkpt>
      <trkpt lat="46.26777" lon="-0.19357">
        <ele>121</ele>
        <time>2010-01-01T00:25:15Z</time>
      </trkpt>
      <trkpt lat="46.26785" lon="-0.19297">
        <ele>123</ele>
        <time>2010-01-01T00:25:57Z</time>
      </trkpt>
      <trkpt lat="46.26791" lon="-0.1925">
        <ele>123</ele>
        <time>2010-01-01T00:26:30Z</time>
      </trkpt>
      <trkpt lat="46.26794" lon="-0.19213">
        <ele>121</ele>
        <time>2010-01-01T00:26:56Z</time>
      </trkpt>
      <trkpt lat="46.26791" lon="-0.19196">
        <ele>121</ele>
        <time>2010-01-01T00:27:08Z</time>
      </trkpt>
      <trkpt lat="46.26789" lon="-0.19132">
        <ele>121</ele>
        <time>2010-01-01T00:27:52Z</time>
      </trkpt>
      <trkpt lat="46.26769" lon="-0.19044">
        <ele>123</ele>
        <time>2010-01-01T00:28:57Z</time>
      </trkpt>
      <trkpt lat="46.26693" lon="-0.18816">
        <ele>141</ele>
        <time>2010-01-01T00:31:51Z</time>
      </trkpt>
      <trkpt lat="46.26568" lon="-0.186">
        <ele>135</ele>
        <time>2010-01-01T00:35:06Z</time>
      </trkpt>
      <trkpt lat="46.26402" lon="-0.18325">
        <ele>136</ele>
        <time>2010-01-01T00:39:19Z</time>
      </trkpt>
      <trkpt lat="46.26335" lon="-0.18237">
        <ele>129</ele>
        <time>2010-01-01T00:40:49Z</time>
      </trkpt>
      <trkpt lat="46.26285" lon="-0.18095">
        <ele>128</ele>
        <time>2010-01-01T00:42:39Z</time>
      </trkpt>
      <trkpt lat="46.26258" lon="-0.18024">
        <ele>128</ele>
        <time>2010-01-01T00:43:35Z</time>
      </trkpt>
      <trkpt lat="46.26234" lon="-0.17848">
        <ele>138</ele>
        <time>2010-01-01T00:45:39Z</time>
      </trkpt>
      <trkpt lat="46.26243" lon="-0.17711">
        <ele>147</ele>
        <time>2010-01-01T00:47:15Z</time>
      </trkpt>
      <trkpt lat="46.26255" lon="-0.17505">
        <ele>138</ele>
        <time>2010-01-01T00:49:38Z</time>
      </trkpt>
      <trkpt lat="46.26258" lon="-0.17291">
        <ele>149</ele>
        <time>2010-01-01T00:52:06Z</time>
      </trkpt>
      <trkpt lat="46.26248" lon="-0.17209">
        <ele>153</ele>
        <time>2010-01-01T00:53:04Z</time>
      </trkpt>
      <trkpt lat="46.26221" lon="-0.17102">
        <ele>149</ele>
        <time>2010-01-01T00:54:23Z</time>
      </trkpt>
      <trkpt lat="46.262" lon="-0.17061">
        <ele>147</ele>
        <time>2010-01-01T00:54:58Z</time>
      </trkpt>
      <trkpt lat="46.2618" lon="-0.17035">
        <ele>149</ele>
        <time>2010-01-01T00:55:25Z</time>
      </trkpt>
      <trkpt lat="46.2616" lon="-0.16992">
        <ele>151</ele>
        <time>2010-01-01T00:56:00Z</time>
      </trkpt>
      <trkpt lat="46.26128" lon="-0.16937">
        <ele>148</ele>
        <time>2010-01-01T00:56:51Z</time>
      </trkpt>
      <trkpt lat="46.26105" lon="-0.16922">
        <ele>147</ele>
        <time>2010-01-01T00:57:15Z</time>
      </trkpt>
      <trkpt lat="46.25985" lon="-0.16838">
        <ele>141</ele>
        <time>2010-01-01T00:59:29Z</time>
      </trkpt>
      <trkpt lat="46.25954" lon="-0.16782">
        <ele>141</ele>
        <time>2010-01-01T01:00:19Z</time>
      </trkpt>
      <trkpt lat="46.2591" lon="-0.16675">
        <ele>143</ele>
        <time>2010-01-01T01:01:45Z</time>
      </trkpt>
      <trkpt lat="46.25835" lon="-0.16857">
        <ele>143</ele>
        <time>2010-01-01T01:04:12Z</time>
      </trkpt>
      <trkpt lat="46.25843" lon="-0.16928">
        <ele>149</ele>
        <time>2010-01-01T01:05:01Z</time>
      </trkpt>
      <trkpt lat="46.25837" lon="-0.16986">
        <ele>153</ele>
        <time>2010-01-01T01:05:42Z</time>
      </trkpt>
      <trkpt lat="46.25835" lon="-0.17052">
        <ele>159</ele>
        <time>2010-01-01T01:06:28Z</time>
      </trkpt>
      <trkpt lat="46.25867" lon="-0.17323">
        <ele>157</ele>
        <time>2010-01-01T01:09:37Z</time>
      </trkpt>
      <trkpt lat="46.25887" lon="-0.17443">
        <ele>157</ele>
        <time>2010-01-01T01:11:03Z</time>
      </trkpt>
      <trkpt lat="46.2585" lon="-0.17589">
        <ele>152</ele>
        <time>2010-01-01T01:12:51Z</time>
      </trkpt>
      <trkpt lat="46.25559" lon="-0.1749">
        <ele>163</ele>
        <time>2010-01-01T01:17:50Z</time>
      </trkpt>
      <trkpt lat="46.2557" lon="-0.17548">
        <ele>165</ele>
        <time>2010-01-01T01:18:31Z</time>
      </trkpt>
      <trkpt lat="46.25608" lon="-0.1767">
        <ele>163</ele>
        <time>2010-01-01T01:20:04Z</time>
      </trkpt>
      <trkpt lat="46.25614" lon="-0.17728">
        <ele>160</ele>
        <time>2010-01-01T01:20:45Z</time>
      </trkpt>
      <trkpt lat="46.25605" lon="-0.17848">
        <ele>155</ele>
        <time>2010-01-01T01:22:08Z</time>
      </trkpt>
      <trkpt lat="46.25604" lon="-0.17928">
        <ele>153</ele>
        <time>2010-01-01T01:23:03Z</time>
      </trkpt>
      <trkpt lat="46.25594" lon="-0.18001">
        <ele>154</ele>
        <time>2010-01-01T01:23:55Z</time>
      </trkpt>
      <trkpt lat="46.25571" lon="-0.18057">
        <ele>155</ele>
        <time>2010-01-01T01:24:39Z</time>
      </trkpt>
      <trkpt lat="46.25561" lon="-0.18162">
        <ele>154</ele>
        <time>2010-01-01T01:25:53Z</time>
      </trkpt>
      <trkpt lat="46.25533" lon="-0.18256">
        <ele>156</ele>
        <time>2010-01-01T01:27:04Z</time>
      </trkpt>
      <trkpt lat="46.25614" lon="-0.18224">
        <ele>153</ele>
        <time>2010-01-01T01:28:29Z</time>
      </trkpt>
      <trkpt lat="46.25693" lon="-0.18293">
        <ele>149</ele>
        <time>2010-01-01T01:30:00Z</time>
      </trkpt>
      <trkpt lat="46.25737" lon="-0.18308">
        <ele>148</ele>
        <time>2010-01-01T01:30:46Z</time>
      </trkpt>
      <trkpt lat="46.25773" lon="-0.18329">
        <ele>148</ele>
        <time>2010-01-01T01:31:25Z</time>
      </trkpt>
      <trkpt lat="46.25788" lon="-0.18325">
        <ele>148</ele>
        <time>2010-01-01T01:31:40Z</time>
      </trkpt>
      <trkpt lat="46.25797" lon="-0.18361">
        <ele>146</ele>
        <time>2010-01-01T01:32:07Z</time>
      </trkpt>
      <trkpt lat="46.25804" lon="-0.184">
        <ele>146</ele>
        <time>2010-01-01T01:32:34Z</time>
      </trkpt>
      <trkpt lat="46.25834" lon="-0.18544">
        <ele>142</ele>
        <time>2010-01-01T01:34:18Z</time>
      </trkpt>
      <trkpt lat="46.25841" lon="-0.1875">
        <ele>146</ele>
        <time>2010-01-01T01:36:41Z</time>
      </trkpt>
      <trkpt lat="46.25786" lon="-0.18889">
        <ele>144</ele>
        <time>2010-01-01T01:38:32Z</time>
      </trkpt>
      <trkpt lat="46.25737" lon="-0.18943">
        <ele>143</ele>
        <time>2010-01-01T01:39:33Z</time>
      </trkpt>
      <trkpt lat="46.25681" lon="-0.19027">
        <ele>141</ele>
        <time>2010-01-01T01:40:54Z</time>
      </trkpt>
      <trkpt lat="46.25654" lon="-0.1905">
        <ele>141</ele>
        <time>2010-01-01T01:41:26Z</time>
      </trkpt>
      <trkpt lat="46.25631" lon="-0.19095">
        <ele>142</ele>
        <time>2010-01-01T01:42:05Z</time>
      </trkpt>
      <trkpt lat="46.25628" lon="-0.19138">
        <ele>142</ele>
        <time>2010-01-01T01:42:35Z</time>
      </trkpt>
      <trkpt lat="46.25631" lon="-0.19166">
        <ele>141</ele>
        <time>2010-01-01T01:42:54Z</time>
      </trkpt>
      <trkpt lat="46.25681" lon="-0.19235">
        <ele>141</ele>
        <time>2010-01-01T01:44:04Z</time>
      </trkpt>
      <trkpt lat="46.25714" lon="-0.19284">
        <ele>137</ele>
        <time>2010-01-01T01:44:51Z</time>
      </trkpt>
      <trkpt lat="46.25733" lon="-0.1931">
        <ele>134</ele>
        <time>2010-01-01T01:45:17Z</time>
      </trkpt>
      <trkpt lat="46.25743" lon="-0.19342">
        <ele>129</ele>
        <time>2010-01-01T01:45:42Z</time>
      </trkpt>
      <trkpt lat="46.25757" lon="-0.19374">
        <ele>126</ele>
        <time>2010-01-01T01:46:08Z</time>
      </trkpt>
      <trkpt lat="46.25763" lon="-0.19423">
        <ele>126</ele>
        <time>2010-01-01T01:46:42Z</time>
      </trkpt>
      <trkpt lat="46.25754" lon="-0.1946">
        <ele>124</ele>
        <time>2010-01-01T01:47:09Z</time>
      </trkpt>
      <trkpt lat="46.25697" lon="-0.19507">
        <ele>124</ele>
        <time>2010-01-01T01:48:14Z</time>
      </trkpt>
      <trkpt lat="46.25727" lon="-0.19597">
        <ele>121</ele>
        <time>2010-01-01T01:49:23Z</time>
      </trkpt>
      <trkpt lat="46.25758" lon="-0.19681">
        <ele>119</ele>
        <time>2010-01-01T01:50:29Z</time>
      </trkpt>
      <trkpt lat="46.25794" lon="-0.19728">
        <ele>120</ele>
        <time>2010-01-01T01:51:17Z</time>
      </trkpt>
      <trkpt lat="46.25883" lon="-0.19887">
        <ele>123</ele>
        <time>2010-01-01T01:53:39Z</time>
      </trkpt>
      <trkpt lat="46.25904" lon="-0.19964">
        <ele>124</ele>
        <time>2010-01-01T01:54:36Z</time>
      </trkpt>
      <trkpt lat="46.25948" lon="-0.20061">
        <ele>130</ele>
        <time>2010-01-01T01:55:57Z</time>
      </trkpt>
      <trkpt lat="46.25991" lon="-0.20185">
        <ele>134</ele>
        <time>2010-01-01T01:57:33Z</time>
      </trkpt>
      <trkpt lat="46.26003" lon="-0.20207">
        <ele>133</ele>
        <time>2010-01-01T01:57:52Z</time>
      </trkpt>
      <trkpt lat="46.26003" lon="-0.20271">
        <ele>131</ele>
        <time>2010-01-01T01:58:36Z</time>
      </trkpt>
      <trkpt lat="46.26031" lon="-0.20396">
        <ele>126</ele>
        <time>2010-01-01T02:00:07Z</time>
      </trkpt>
      <trkpt lat="46.26048" lon="-0.20451">
        <ele>123</ele>
        <time>2010-01-01T02:00:49Z</time>
      </trkpt>
      <trkpt lat="46.26052" lon="-0.20505">
        <ele>121</ele>
        <time>2010-01-01T02:01:26Z</time>
      </trkpt>
      <trkpt lat="46.26063" lon="-0.2054">
        <ele>119</ele>
        <time>2010-01-01T02:01:53Z</time>
      </trkpt>
      <trkpt lat="46.26085" lon="-0.20581">
        <ele>116</ele>
        <time>2010-01-01T02:02:29Z</time>
      </trkpt>
      <trkpt lat="46.26098" lon="-0.20633">
        <ele>113</ele>
        <time>2010-01-01T02:03:07Z</time>
      </trkpt>
      <trkpt lat="46.26114" lon="-0.20668">
        <ele>108</ele>
        <time>2010-01-01T02:03:36Z</time>
      </trkpt>
      <trkpt lat="46.26124" lon="-0.20679">
        <ele>107</ele>
        <time>2010-01-01T02:03:49Z</time>
      </trkpt>
      <trkpt lat="46.26136" lon="-0.20701">
        <ele>103</ele>
        <time>2010-01-01T02:04:08Z</time>
      </trkpt>
      <trkpt lat="46.26149" lon="-0.20742">
        <ele>99</ele>
        <time>2010-01-01T02:04:39Z</time>
      </trkpt>
    </trkseg>
  </trk>
</gpx>